sensor_id;sensor_type;location;lat;lon;timestamp;P1;durP1;ratioP1;P2;durP2;ratioP2
36751;SDS011;22718;49.494;7.036;2023-11-22T20:03:34;10.73;;;5.03;;
36751;SDS011;22718;49.494;7.036;2023-11-22T20:05:59;10.68;;;5.18;;
36751;SDS011;22718;49.494;7.036;2023-11-22T20:10:55;11.63;;;3.47;;
36751;SDS011;22718;49.494;7.036;2023-11-22T20:13:24;9.38;;;4.18;;
36751;SDS011;22718;49.494;7.036;2023-11-22T20:15:51;8.35;;;3.30;;
36751;SDS011;22718;49.494;7.036;2023-11-22T20:18:16;7.53;;;3.75;;
36751;SDS011;22718;49.494;7.036;2023-11-22T20:20:46;7.13;;;3.20;;
36751;SDS011;22718;49.494;7.036;2023-11-22T20:23:19;8.38;;;3.13;;
36751;SDS011;22718;49.494;7.036;2023-11-22T20:25:48;8.23;;;3.55;;
36751;SDS011;22718;49.494;7.036;2023-11-22T20:28:14;8.32;;;3.00;;
36751;SDS011;22718;49.494;7.036;2023-11-22T20:30:47;11.30;;;4.38;;
36751;SDS011;22718;49.494;7.036;2023-11-22T20:33:13;8.68;;;3.28;;
36751;SDS011;22718;49.494;7.036;2023-11-22T20:35:38;15.52;;;5.35;;
36751;SDS011;22718;49.494;7.036;2023-11-22T20:40:35;13.77;;;5.30;;
36751;SDS011;22718;49.494;7.036;2023-11-22T20:43:01;8.40;;;3.90;;
36751;SDS011;22718;49.494;7.036;2023-11-22T20:45:27;7.72;;;3.65;;
36751;SDS011;22718;49.494;7.036;2023-11-22T20:47:53;7.68;;;3.53;;
36751;SDS011;22718;49.494;7.036;2023-11-22T20:50:19;9.75;;;4.40;;
36751;SDS011;22718;49.494;7.036;2023-11-22T20:52:46;10.57;;;4.75;;
36751;SDS011;22718;49.494;7.036;2023-11-22T20:55:13;12.18;;;5.05;;
36751;SDS011;22718;49.494;7.036;2023-11-22T20:57:40;9.80;;;4.13;;
36751;SDS011;22718;49.494;7.036;2023-11-22T21:00:14;7.25;;;3.35;;
36751;SDS011;22718;49.494;7.036;2023-11-22T21:02:43;9.80;;;3.97;;
36751;SDS011;22718;49.494;7.036;2023-11-22T21:05:09;8.65;;;4.13;;
36751;SDS011;22718;49.494;7.036;2023-11-22T21:07:37;8.80;;;3.70;;
36751;SDS011;22718;49.494;7.036;2023-11-22T21:10:10;7.53;;;3.40;;
36751;SDS011;22718;49.494;7.036;2023-11-22T21:12:37;9.68;;;4.25;;
36751;SDS011;22718;49.494;7.036;2023-11-22T21:15:04;13.05;;;6.38;;
36751;SDS011;22718;49.494;7.036;2023-11-22T21:17:34;11.00;;;5.22;;
36751;SDS011;22718;49.494;7.036;2023-11-22T21:20:00;13.70;;;4.72;;
36751;SDS011;22718;49.494;7.036;2023-11-22T21:22:34;11.80;;;5.00;;
36751;SDS011;22718;49.494;7.036;2023-11-22T21:25:00;11.93;;;4.82;;
36751;SDS011;22718;49.494;7.036;2023-11-22T21:27:26;12.73;;;6.40;;
36751;SDS011;22718;49.494;7.036;2023-11-22T21:29:53;12.88;;;5.53;;
36751;SDS011;22718;49.494;7.036;2023-11-22T21:32:33;18.85;;;7.50;;
36751;SDS011;22718;49.494;7.036;2023-11-22T21:34:58;14.07;;;7.03;;
36751;SDS011;22718;49.494;7.036;2023-11-22T21:37:24;15.25;;;6.47;;
36751;SDS011;22718;49.494;7.036;2023-11-22T21:39:50;15.32;;;7.13;;
36751;SDS011;22718;49.494;7.036;2023-11-22T21:42:15;15.30;;;7.63;;
36751;SDS011;22718;49.494;7.036;2023-11-22T21:44:42;15.43;;;6.18;;
36751;SDS011;22718;49.494;7.036;2023-11-22T21:47:07;12.13;;;6.32;;
36751;SDS011;22718;49.494;7.036;2023-11-22T21:49:35;11.65;;;4.90;;
36751;SDS011;22718;49.494;7.036;2023-11-22T21:52:03;8.80;;;4.30;;
36751;SDS011;22718;49.494;7.036;2023-11-22T21:54:35;12.35;;;5.05;;
36751;SDS011;22718;49.494;7.036;2023-11-22T21:57:03;10.95;;;5.43;;
36751;SDS011;22718;49.494;7.036;2023-11-22T21:59:30;9.77;;;5.25;;
36751;SDS011;22718;49.494;7.036;2023-11-22T22:01:57;11.63;;;4.80;;
36751;SDS011;22718;49.494;7.036;2023-11-22T22:04:25;10.93;;;4.90;;
36751;SDS011;22718;49.494;7.036;2023-11-22T22:06:51;9.40;;;3.85;;
36751;SDS011;22718;49.494;7.036;2023-11-22T22:09:18;9.50;;;4.25;;
36751;SDS011;22718;49.494;7.036;2023-11-22T22:11:50;12.73;;;5.43;;
36751;SDS011;22718;49.494;7.036;2023-11-22T22:14:20;9.25;;;4.70;;
36751;SDS011;22718;49.494;7.036;2023-11-22T22:16:46;10.82;;;4.75;;
36751;SDS011;22718;49.494;7.036;2023-11-22T22:19:12;8.32;;;3.80;;
36751;SDS011;22718;49.494;7.036;2023-11-22T22:21:43;11.07;;;3.97;;
36751;SDS011;22718;49.494;7.036;2023-11-22T22:24:20;11.98;;;4.88;;
36751;SDS011;22718;49.494;7.036;2023-11-22T22:27:25;12.02;;;4.70;;
36751;SDS011;22718;49.494;7.036;2023-11-22T22:30:06;10.65;;;4.85;;
36751;SDS011;22718;49.494;7.036;2023-11-22T22:33:00;11.13;;;5.20;;
36751;SDS011;22718;49.494;7.036;2023-11-22T22:35:50;9.88;;;4.43;;
36751;SDS011;22718;49.494;7.036;2023-11-22T22:38:30;11.95;;;5.40;;
36751;SDS011;22718;49.494;7.036;2023-11-22T22:41:16;14.50;;;5.82;;
36751;SDS011;22718;49.494;7.036;2023-11-22T22:44:10;10.88;;;4.78;;
36751;SDS011;22718;49.494;7.036;2023-11-22T22:46:58;14.52;;;5.68;;
36751;SDS011;22718;49.494;7.036;2023-11-22T22:49:46;14.20;;;6.35;;
36751;SDS011;22718;49.494;7.036;2023-11-22T22:52:16;10.60;;;4.90;;
36751;SDS011;22718;49.494;7.036;2023-11-22T22:54:46;9.90;;;4.03;;
36751;SDS011;22718;49.494;7.036;2023-11-22T22:57:12;14.50;;;5.00;;
36751;SDS011;22718;49.494;7.036;2023-11-22T22:59:41;10.65;;;4.28;;
36751;SDS011;22718;49.494;7.036;2023-11-22T23:02:17;10.02;;;4.70;;
36751;SDS011;22718;49.494;7.036;2023-11-22T23:04:49;11.38;;;4.80;;
36751;SDS011;22718;49.494;7.036;2023-11-22T23:07:28;12.57;;;5.32;;
36751;SDS011;22718;49.494;7.036;2023-11-22T23:10:04;11.07;;;5.22;;
36751;SDS011;22718;49.494;7.036;2023-11-22T23:12:32;10.18;;;4.20;;
36751;SDS011;22718;49.494;7.036;2023-11-22T23:14:58;9.57;;;4.15;;
36751;SDS011;22718;49.494;7.036;2023-11-22T23:17:25;16.70;;;7.65;;
36751;SDS011;22718;49.494;7.036;2023-11-22T23:19:52;14.55;;;5.90;;
36751;SDS011;22718;49.494;7.036;2023-11-22T23:22:25;9.23;;;4.93;;
36751;SDS011;22718;49.494;7.036;2023-11-22T23:25:06;10.48;;;5.00;;
36751;SDS011;22718;49.494;7.036;2023-11-22T23:27:34;8.80;;;4.57;;
36751;SDS011;22718;49.494;7.036;2023-11-22T23:30:03;9.98;;;5.40;;
36751;SDS011;22718;49.494;7.036;2023-11-22T23:32:40;14.27;;;5.82;;
36751;SDS011;22718;49.494;7.036;2023-11-22T23:35:07;14.45;;;6.72;;
36751;SDS011;22718;49.494;7.036;2023-11-22T23:37:37;14.70;;;6.77;;
36751;SDS011;22718;49.494;7.036;2023-11-22T23:40:08;14.40;;;5.80;;
36751;SDS011;22718;49.494;7.036;2023-11-22T23:42:38;13.30;;;5.68;;
36751;SDS011;22718;49.494;7.036;2023-11-22T23:45:06;16.63;;;7.93;;
36751;SDS011;22718;49.494;7.036;2023-11-22T23:47:40;14.80;;;7.53;;
36751;SDS011;22718;49.494;7.036;2023-11-22T23:50:28;13.90;;;6.03;;
36751;SDS011;22718;49.494;7.036;2023-11-22T23:52:54;11.23;;;5.25;;
36751;SDS011;22718;49.494;7.036;2023-11-22T23:55:20;11.52;;;6.57;;
36751;SDS011;22718;49.494;7.036;2023-11-22T23:57:46;15.73;;;6.55;;
